sensor_id;sensor_type;location;lat;lon;timestamp;temperature;humidity
9723;DHT22;4900;49.306;8.500;2024-01-10T00:01:32;-4.35;65.31
9723;DHT22;4900;49.306;8.500;2024-01-10T00:03:57;-4.33;65.35
9723;DHT22;4900;49.306;8.500;2024-01-10T00:06:23;-4.35;65.15
9723;DHT22;4900;49.306;8.500;2024-01-10T00:08:49;-4.40;65.15
9723;DHT22;4900;49.306;8.500;2024-01-10T00:11:14;-4.37;65.19
9723;DHT22;4900;49.306;8.500;2024-01-10T00:13:40;-4.38;65.24
9723;DHT22;4900;49.306;8.500;2024-01-10T00:16:05;-4.37;65.26
9723;DHT22;4900;49.306;8.500;2024-01-10T00:18:31;-4.35;65.33
9723;DHT22;4900;49.306;8.500;2024-01-10T00:20:57;-4.35;65.36
9723;DHT22;4900;49.306;8.500;2024-01-10T00:23:23;-4.40;65.46
9723;DHT22;4900;49.306;8.500;2024-01-10T00:25:49;-4.38;65.52
9723;DHT22;4900;49.306;8.500;2024-01-10T00:28:15;-4.38;65.39
9723;DHT22;4900;49.306;8.500;2024-01-10T00:30:44;-4.40;65.44
9723;DHT22;4900;49.306;8.500;2024-01-10T00:33:09;-4.41;65.49
9723;DHT22;4900;49.306;8.500;2024-01-10T00:35:34;-4.41;65.80
9723;DHT22;4900;49.306;8.500;2024-01-10T00:38:00;-4.40;66.05
9723;DHT22;4900;49.306;8.500;2024-01-10T00:40:26;-4.38;66.23
9723;DHT22;4900;49.306;8.500;2024-01-10T00:42:51;-4.35;66.13
9723;DHT22;4900;49.306;8.500;2024-01-10T00:45:17;-4.30;66.13
9723;DHT22;4900;49.306;8.500;2024-01-10T00:47:42;-4.25;66.22
9723;DHT22;4900;49.306;8.500;2024-01-10T00:50:08;-4.23;66.23
9723;DHT22;4900;49.306;8.500;2024-01-10T00:52:33;-4.18;66.35
9723;DHT22;4900;49.306;8.500;2024-01-10T00:54:59;-4.14;66.33
9723;DHT22;4900;49.306;8.500;2024-01-10T00:57:24;-4.09;66.27
9723;DHT22;4900;49.306;8.500;2024-01-10T00:59:50;-4.03;66.25
9723;DHT22;4900;49.306;8.500;2024-01-10T01:02:16;-3.99;66.26
9723;DHT22;4900;49.306;8.500;2024-01-10T01:04:41;-3.92;66.19
9723;DHT22;4900;49.306;8.500;2024-01-10T01:07:06;-3.88;66.19
9723;DHT22;4900;49.306;8.500;2024-01-10T01:09:33;-3.81;66.23
9723;DHT22;4900;49.306;8.500;2024-01-10T01:11:59;-3.77;66.33
9723;DHT22;4900;49.306;8.500;2024-01-10T01:14:24;-3.75;66.42
9723;DHT22;4900;49.306;8.500;2024-01-10T01:16:50;-3.71;66.61
9723;DHT22;4900;49.306;8.500;2024-01-10T01:19:15;-3.68;66.69
9723;DHT22;4900;49.306;8.500;2024-01-10T01:21:41;-3.59;66.64
9723;DHT22;4900;49.306;8.500;2024-01-10T01:24:07;-3.55;66.62
9723;DHT22;4900;49.306;8.500;2024-01-10T01:26:32;-3.51;66.61
9723;DHT22;4900;49.306;8.500;2024-01-10T01:28:58;-3.44;66.68
9723;DHT22;4900;49.306;8.500;2024-01-10T01:31:23;-3.41;66.69
9723;DHT22;4900;49.306;8.500;2024-01-10T01:33:48;-3.40;66.67
9723;DHT22;4900;49.306;8.500;2024-01-10T01:36:14;-3.34;66.63
9723;DHT22;4900;49.306;8.500;2024-01-10T01:38:39;-3.28;66.53
9723;DHT22;4900;49.306;8.500;2024-01-10T01:41:05;-3.23;66.43
9723;DHT22;4900;49.306;8.500;2024-01-10T01:43:32;-3.20;66.41
9723;DHT22;4900;49.306;8.500;2024-01-10T01:45:57;-3.19;66.26
9723;DHT22;4900;49.306;8.500;2024-01-10T01:48:24;-3.14;66.18
9723;DHT22;4900;49.306;8.500;2024-01-10T01:50:56;-3.10;66.16
9723;DHT22;4900;49.306;8.500;2024-01-10T01:53:23;-3.05;66.05
9723;DHT22;4900;49.306;8.500;2024-01-10T01:55:49;-3.05;65.98
9723;DHT22;4900;49.306;8.500;2024-01-10T01:58:16;-3.02;65.92
9723;DHT22;4900;49.306;8.500;2024-01-10T02:00:42;-3.00;65.88
9723;DHT22;4900;49.306;8.500;2024-01-10T02:03:09;-3.02;65.99
9723;DHT22;4900;49.306;8.500;2024-01-10T02:05:35;-2.99;66.19
9723;DHT22;4900;49.306;8.500;2024-01-10T02:08:00;-2.95;66.29
9723;DHT22;4900;49.306;8.500;2024-01-10T02:10:25;-2.93;66.32
9723;DHT22;4900;49.306;8.500;2024-01-10T02:12:51;-2.92;66.39
9723;DHT22;4900;49.306;8.500;2024-01-10T02:15:17;-2.86;66.47
9723;DHT22;4900;49.306;8.500;2024-01-10T02:17:43;-2.88;66.59
9723;DHT22;4900;49.306;8.500;2024-01-10T02:20:13;-2.88;66.78
9723;DHT22;4900;49.306;8.500;2024-01-10T02:22:39;-2.86;66.96
9723;DHT22;4900;49.306;8.500;2024-01-10T02:25:06;-2.82;66.84
9723;DHT22;4900;49.306;8.500;2024-01-10T02:27:34;-2.79;66.74
9723;DHT22;4900;49.306;8.500;2024-01-10T02:30:03;-2.77;66.83
9723;DHT22;4900;49.306;8.500;2024-01-10T02:32:28;-2.75;66.84
9723;DHT22;4900;49.306;8.500;2024-01-10T02:34:54;-2.72;66.82
9723;DHT22;4900;49.306;8.500;2024-01-10T02:37:19;-2.69;66.79
9723;DHT22;4900;49.306;8.500;2024-01-10T02:39:45;-2.69;66.61
9723;DHT22;4900;49.306;8.500;2024-01-10T02:42:10;-2.69;66.54
9723;DHT22;4900;49.306;8.500;2024-01-10T02:44:35;-2.67;66.50
9723;DHT22;4900;49.306;8.500;2024-01-10T02:47:01;-2.68;66.61
9723;DHT22;4900;49.306;8.500;2024-01-10T02:49:26;-2.65;66.63
9723;DHT22;4900;49.306;8.500;2024-01-10T02:51:52;-2.67;66.60
9723;DHT22;4900;49.306;8.500;2024-01-10T02:54:17;-2.64;66.56
9723;DHT22;4900;49.306;8.500;2024-01-10T02:56:42;-2.62;66.73
9723;DHT22;4900;49.306;8.500;2024-01-10T02:59:08;-2.64;66.72
9723;DHT22;4900;49.306;8.500;2024-01-10T03:01:33;-2.61;66.79
9723;DHT22;4900;49.306;8.500;2024-01-10T03:03:59;-2.60;66.78
9723;DHT22;4900;49.306;8.500;2024-01-10T03:06:24;-2.58;66.76
9723;DHT22;4900;49.306;8.500;2024-01-10T03:08:51;-2.56;66.85
9723;DHT22;4900;49.306;8.500;2024-01-10T03:11:16;-2.53;66.81
9723;DHT22;4900;49.306;8.500;2024-01-10T03:13:44;-2.53;66.82
9723;DHT22;4900;49.306;8.500;2024-01-10T03:16:11;-2.49;66.78
9723;DHT22;4900;49.306;8.500;2024-01-10T03:18:36;-2.43;66.77
9723;DHT22;4900;49.306;8.500;2024-01-10T03:21:02;-2.43;66.79
9723;DHT22;4900;49.306;8.500;2024-01-10T03:23:27;-2.41;66.78
9723;DHT22;4900;49.306;8.500;2024-01-10T03:25:53;-2.40;66.75
9723;DHT22;4900;49.306;8.500;2024-01-10T03:28:18;-2.43;66.76
9723;DHT22;4900;49.306;8.500;2024-01-10T03:30:44;-2.43;66.80
9723;DHT22;4900;49.306;8.500;2024-01-10T03:33:10;-2.44;66.89
9723;DHT22;4900;49.306;8.500;2024-01-10T03:35:35;-2.47;66.92
9723;DHT22;4900;49.306;8.500;2024-01-10T03:38:01;-2.51;67.01
9723;DHT22;4900;49.306;8.500;2024-01-10T03:40:26;-2.56;67.01
9723;DHT22;4900;49.306;8.500;2024-01-10T03:42:52;-2.62;67.15
9723;DHT22;4900;49.306;8.500;2024-01-10T03:45:17;-2.64;67.18
9723;DHT22;4900;49.306;8.500;2024-01-10T03:47:46;-2.67;67.28
9723;DHT22;4900;49.306;8.500;2024-01-10T03:50:15;-2.72;67.34
9723;DHT22;4900;49.306;8.500;2024-01-10T03:52:42;-2.74;67.49
9723;DHT22;4900;49.306;8.500;2024-01-10T03:55:09;-2.74;67.46
9723;DHT22;4900;49.306;8.500;2024-01-10T03:57:34;-2.74;67.51
9723;DHT22;4900;49.306;8.500;2024-01-10T04:00:00;-2.74;67.50
9723;DHT22;4900;49.306;8.500;2024-01-10T04:02:26;-2.75;67.35
9723;DHT22;4900;49.306;8.500;2024-01-10T04:04:53;-2.75;67.13
9723;DHT22;4900;49.306;8.500;2024-01-10T04:07:21;-2.74;66.55
9723;DHT22;4900;49.306;8.500;2024-01-10T04:09:48;-2.75;66.28
9723;DHT22;4900;49.306;8.500;2024-01-10T04:12:13;-2.69;66.40
9723;DHT22;4900;49.306;8.500;2024-01-10T04:14:38;-2.67;66.16
9723;DHT22;4900;49.306;8.500;2024-01-10T04:17:04;-2.71;65.64
9723;DHT22;4900;49.306;8.500;2024-01-10T04:19:30;-2.67;65.56
9723;DHT22;4900;49.306;8.500;2024-01-10T04:21:55;-2.65;65.19
9723;DHT22;4900;49.306;8.500;2024-01-10T04:24:21;-2.67;64.63
9723;DHT22;4900;49.306;8.500;2024-01-10T04:26:46;-2.65;64.24
9723;DHT22;4900;49.306;8.500;2024-01-10T04:29:11;-2.64;64.03
9723;DHT22;4900;49.306;8.500;2024-01-10T04:31:37;-2.64;63.86
9723;DHT22;4900;49.306;8.500;2024-01-10T04:34:03;-2.68;63.57
9723;DHT22;4900;49.306;8.500;2024-01-10T04:36:28;-2.67;63.46
9723;DHT22;4900;49.306;8.500;2024-01-10T04:38:54;-2.71;63.16
9723;DHT22;4900;49.306;8.500;2024-01-10T04:41:19;-2.65;63.42
9723;DHT22;4900;49.306;8.500;2024-01-10T04:43:45;-2.71;62.86
9723;DHT22;4900;49.306;8.500;2024-01-10T04:46:10;-2.68;63.18
9723;DHT22;4900;49.306;8.500;2024-01-10T04:48:36;-2.68;63.45
9723;DHT22;4900;49.306;8.500;2024-01-10T04:51:02;-2.68;63.60
9723;DHT22;4900;49.306;8.500;2024-01-10T04:53:27;-2.71;63.54
9723;DHT22;4900;49.306;8.500;2024-01-10T04:55:53;-2.74;63.55
9723;DHT22;4900;49.306;8.500;2024-01-10T04:58:18;-2.74;63.77
9723;DHT22;4900;49.306;8.500;2024-01-10T05:00:44;-2.79;63.70
9723;DHT22;4900;49.306;8.500;2024-01-10T05:03:09;-2.81;63.75
9723;DHT22;4900;49.306;8.500;2024-01-10T05:05:35;-2.85;63.92
9723;DHT22;4900;49.306;8.500;2024-01-10T05:08:00;-2.89;63.81
9723;DHT22;4900;49.306;8.500;2024-01-10T05:10:27;-2.93;63.83
9723;DHT22;4900;49.306;8.500;2024-01-10T05:12:52;-2.97;64.05
9723;DHT22;4900;49.306;8.500;2024-01-10T05:15:18;-2.99;64.15
9723;DHT22;4900;49.306;8.500;2024-01-10T05:17:44;-2.99;64.21
9723;DHT22;4900;49.306;8.500;2024-01-10T05:20:10;-3.02;64.30
9723;DHT22;4900;49.306;8.500;2024-01-10T05:22:35;-3.03;64.41
9723;DHT22;4900;49.306;8.500;2024-01-10T05:25:01;-3.03;64.40
9723;DHT22;4900;49.306;8.500;2024-01-10T05:27:27;-2.99;64.42
9723;DHT22;4900;49.306;8.500;2024-01-10T05:29:52;-3.00;64.42
9723;DHT22;4900;49.306;8.500;2024-01-10T05:32:17;-3.00;64.44
9723;DHT22;4900;49.306;8.500;2024-01-10T05:34:44;-2.97;64.46
9723;DHT22;4900;49.306;8.500;2024-01-10T05:37:10;-2.96;64.47
9723;DHT22;4900;49.306;8.500;2024-01-10T05:39:35;-2.92;64.50
9723;DHT22;4900;49.306;8.500;2024-01-10T05:42:01;-2.89;64.46
9723;DHT22;4900;49.306;8.500;2024-01-10T05:44:28;-2.85;64.58
9723;DHT22;4900;49.306;8.500;2024-01-10T05:46:53;-2.86;64.68
9723;DHT22;4900;49.306;8.500;2024-01-10T05:49:19;-2.84;64.70
9723;DHT22;4900;49.306;8.500;2024-01-10T05:51:44;-2.82;64.71
9723;DHT22;4900;49.306;8.500;2024-01-10T05:54:10;-2.81;64.66
9723;DHT22;4900;49.306;8.500;2024-01-10T05:56:35;-2.78;64.64
9723;DHT22;4900;49.306;8.500;2024-01-10T05:59:00;-2.79;64.61
9723;DHT22;4900;49.306;8.500;2024-01-10T06:01:27;-2.77;64.64
9723;DHT22;4900;49.306;8.500;2024-01-10T06:03:53;-2.74;64.69
9723;DHT22;4900;49.306;8.500;2024-01-10T06:06:18;-2.68;64.79
9723;DHT22;4900;49.306;8.500;2024-01-10T06:08:44;-2.67;64.81
9723;DHT22;4900;49.306;8.500;2024-01-10T06:11:10;-2.62;65.05
9723;DHT22;4900;49.306;8.500;2024-01-10T06:13:36;-2.62;65.31
9723;DHT22;4900;49.306;8.500;2024-01-10T06:16:04;-2.58;65.58
9723;DHT22;4900;49.306;8.500;2024-01-10T06:18:30;-2.53;65.70
9723;DHT22;4900;49.306;8.500;2024-01-10T06:20:55;-2.49;65.79
9723;DHT22;4900;49.306;8.500;2024-01-10T06:23:20;-2.46;65.91
9723;DHT22;4900;49.306;8.500;2024-01-10T06:25:47;-2.41;66.04
9723;DHT22;4900;49.306;8.500;2024-01-10T06:28:12;-2.36;66.05
9723;DHT22;4900;49.306;8.500;2024-01-10T06:30:38;-2.36;66.26
9723;DHT22;4900;49.306;8.500;2024-01-10T06:33:03;-2.30;66.39
9723;DHT22;4900;49.306;8.500;2024-01-10T06:35:32;-2.27;66.31
9723;DHT22;4900;49.306;8.500;2024-01-10T06:37:57;-2.23;66.26
9723;DHT22;4900;49.306;8.500;2024-01-10T06:40:22;-2.22;66.16
9723;DHT22;4900;49.306;8.500;2024-01-10T06:42:48;-2.19;66.21
9723;DHT22;4900;49.306;8.500;2024-01-10T06:45:14;-2.16;66.27
9723;DHT22;4900;49.306;8.500;2024-01-10T06:47:39;-2.12;66.24
9723;DHT22;4900;49.306;8.500;2024-01-10T06:50:05;-2.12;66.22
9723;DHT22;4900;49.306;8.500;2024-01-10T06:52:31;-2.12;66.40
9723;DHT22;4900;49.306;8.500;2024-01-10T06:54:57;-2.10;66.56
9723;DHT22;4900;49.306;8.500;2024-01-10T06:57:22;-2.12;66.78
9723;DHT22;4900;49.306;8.500;2024-01-10T06:59:48;-2.10;66.79
9723;DHT22;4900;49.306;8.500;2024-01-10T07:02:13;-2.13;67.05
9723;DHT22;4900;49.306;8.500;2024-01-10T07:04:39;-2.12;67.06
9723;DHT22;4900;49.306;8.500;2024-01-10T07:07:04;-2.09;67.06
9723;DHT22;4900;49.306;8.500;2024-01-10T07:09:30;-2.07;66.98
9723;DHT22;4900;49.306;8.500;2024-01-10T07:11:56;-2.07;66.85
9723;DHT22;4900;49.306;8.500;2024-01-10T07:14:21;-2.06;66.86
9723;DHT22;4900;49.306;8.500;2024-01-10T07:16:47;-2.06;66.82
9723;DHT22;4900;49.306;8.500;2024-01-10T07:19:13;-2.03;66.87
9723;DHT22;4900;49.306;8.500;2024-01-10T07:21:41;-2.05;66.83
9723;DHT22;4900;49.306;8.500;2024-01-10T07:24:07;-2.02;66.74
9723;DHT22;4900;49.306;8.500;2024-01-10T07:26:37;-2.02;66.80
9723;DHT22;4900;49.306;8.500;2024-01-10T07:29:03;-2.02;66.79
9723;DHT22;4900;49.306;8.500;2024-01-10T07:31:29;-2.02;66.90
9723;DHT22;4900;49.306;8.500;2024-01-10T07:33:56;-2.03;67.01
9723;DHT22;4900;49.306;8.500;2024-01-10T07:36:23;-2.05;67.14
9723;DHT22;4900;49.306;8.500;2024-01-10T07:38:48;-1.99;67.12
9723;DHT22;4900;49.306;8.500;2024-01-10T07:41:14;-2.03;67.21
9723;DHT22;4900;49.306;8.500;2024-01-10T07:43:39;-2.02;67.28
9723;DHT22;4900;49.306;8.500;2024-01-10T07:46:05;-1.98;67.28
9723;DHT22;4900;49.306;8.500;2024-01-10T07:48:30;-1.96;67.34
9723;DHT22;4900;49.306;8.500;2024-01-10T07:50:56;-1.92;67.32
9723;DHT22;4900;49.306;8.500;2024-01-10T07:53:22;-1.87;67.26
9723;DHT22;4900;49.306;8.500;2024-01-10T07:55:47;-1.79;67.23
9723;DHT22;4900;49.306;8.500;2024-01-10T07:58:12;-1.77;67.17
9723;DHT22;4900;49.306;8.500;2024-01-10T08:00:38;-1.67;67.19
9723;DHT22;4900;49.306;8.500;2024-01-10T08:03:04;-1.63;67.24
9723;DHT22;4900;49.306;8.500;2024-01-10T08:05:29;-1.53;67.08
9723;DHT22;4900;49.306;8.500;2024-01-10T08:07:55;-1.43;67.01
9723;DHT22;4900;49.306;8.500;2024-01-10T08:10:21;-1.39;66.94
9723;DHT22;4900;49.306;8.500;2024-01-10T08:12:46;-1.29;66.96
9723;DHT22;4900;49.306;8.500;2024-01-10T08:15:12;-1.22;66.92
9723;DHT22;4900;49.306;8.500;2024-01-10T08:17:39;-1.14;66.74
9723;DHT22;4900;49.306;8.500;2024-01-10T08:20:06;-1.08;66.54
9723;DHT22;4900;49.306;8.500;2024-01-10T08:22:32;-0.99;66.37
9723;DHT22;4900;49.306;8.500;2024-01-10T08:24:57;-1.01;66.40
9723;DHT22;4900;49.306;8.500;2024-01-10T08:27:23;-0.95;66.49
9723;DHT22;4900;49.306;8.500;2024-01-10T08:29:48;-0.95;66.48
9723;DHT22;4900;49.306;8.500;2024-01-10T08:32:13;-0.92;66.49
9723;DHT22;4900;49.306;8.500;2024-01-10T08:34:40;-0.88;66.52
9723;DHT22;4900;49.306;8.500;2024-01-10T08:37:05;-0.84;66.59
9723;DHT22;4900;49.306;8.500;2024-01-10T08:39:31;-0.77;66.58
9723;DHT22;4900;49.306;8.500;2024-01-10T08:41:57;-0.66;66.50
9723;DHT22;4900;49.306;8.500;2024-01-10T08:44:23;-0.60;66.40
9723;DHT22;4900;49.306;8.500;2024-01-10T08:46:48;-0.45;66.29
9723;DHT22;4900;49.306;8.500;2024-01-10T08:49:16;-0.39;66.01
9723;DHT22;4900;49.306;8.500;2024-01-10T08:51:41;-0.25;65.82
9723;DHT22;4900;49.306;8.500;2024-01-10T08:54:09;-0.15;65.63
9723;DHT22;4900;49.306;8.500;2024-01-10T08:56:34;-0.03;65.43
9723;DHT22;4900;49.306;8.500;2024-01-10T08:59:00;0.06;65.23
9723;DHT22;4900;49.306;8.500;2024-01-10T09:01:26;0.19;65.10
9723;DHT22;4900;49.306;8.500;2024-01-10T09:03:51;0.31;64.91
9723;DHT22;4900;49.306;8.500;2024-01-10T09:06:17;0.44;64.96
9723;DHT22;4900;49.306;8.500;2024-01-10T09:08:42;0.58;64.73
9723;DHT22;4900;49.306;8.500;2024-01-10T09:11:08;0.73;64.70
9723;DHT22;4900;49.306;8.500;2024-01-10T09:13:34;0.82;64.37
9723;DHT22;4900;49.306;8.500;2024-01-10T09:15:59;0.92;63.98
9723;DHT22;4900;49.306;8.500;2024-01-10T09:18:25;0.97;63.59
9723;DHT22;4900;49.306;8.500;2024-01-10T09:20:50;1.03;63.33
9723;DHT22;4900;49.306;8.500;2024-01-10T09:23:16;1.07;62.89
9723;DHT22;4900;49.306;8.500;2024-01-10T09:25:41;1.08;62.65
9723;DHT22;4900;49.306;8.500;2024-01-10T09:28:07;1.07;62.51
9723;DHT22;4900;49.306;8.500;2024-01-10T09:30:32;1.04;62.40
9723;DHT22;4900;49.306;8.500;2024-01-10T09:32:58;1.03;62.15
9723;DHT22;4900;49.306;8.500;2024-01-10T09:35:25;1.03;62.05
9723;DHT22;4900;49.306;8.500;2024-01-10T09:37:51;1.00;62.01
9723;DHT22;4900;49.306;8.500;2024-01-10T09:40:16;1.01;61.57
9723;DHT22;4900;49.306;8.500;2024-01-10T09:42:49;1.08;60.88
9723;DHT22;4900;49.306;8.500;2024-01-10T09:45:15;1.23;60.78
9723;DHT22;4900;49.306;8.500;2024-01-10T09:47:42;1.30;60.19
9723;DHT22;4900;49.306;8.500;2024-01-10T09:50:11;1.44;58.98
9723;DHT22;4900;49.306;8.500;2024-01-10T09:52:48;1.56;58.82
9723;DHT22;4900;49.306;8.500;2024-01-10T09:55:16;1.70;58.86
9723;DHT22;4900;49.306;8.500;2024-01-10T09:57:42;1.79;58.17
9723;DHT22;4900;49.306;8.500;2024-01-10T10:00:10;1.87;57.72
9723;DHT22;4900;49.306;8.500;2024-01-10T10:02:38;2.00;57.59
9723;DHT22;4900;49.306;8.500;2024-01-10T10:05:10;2.11;56.80
9723;DHT22;4900;49.306;8.500;2024-01-10T10:07:48;2.21;56.84
9723;DHT22;4900;49.306;8.500;2024-01-10T10:10:14;2.22;55.85
9723;DHT22;4900;49.306;8.500;2024-01-10T10:12:53;2.31;55.41
9723;DHT22;4900;49.306;8.500;2024-01-10T10:15:22;2.45;55.41
9723;DHT22;4900;49.306;8.500;2024-01-10T10:17:49;2.53;55.09
9723;DHT22;4900;49.306;8.500;2024-01-10T10:20:22;2.62;55.24
9723;DHT22;4900;49.306;8.500;2024-01-10T10:22:58;2.68;54.72
9723;DHT22;4900;49.306;8.500;2024-01-10T10:25:27;2.72;54.07
9723;DHT22;4900;49.306;8.500;2024-01-10T10:27:53;2.81;54.73
9723;DHT22;4900;49.306;8.500;2024-01-10T10:30:19;2.88;54.18
9723;DHT22;4900;49.306;8.500;2024-01-10T10:32:44;2.87;53.25
9723;DHT22;4900;49.306;8.500;2024-01-10T10:35:10;2.94;53.99
9723;DHT22;4900;49.306;8.500;2024-01-10T10:37:35;2.97;53.30
9723;DHT22;4900;49.306;8.500;2024-01-10T10:40:01;3.04;53.55
9723;DHT22;4900;49.306;8.500;2024-01-10T10:42:28;3.15;53.55
9723;DHT22;4900;49.306;8.500;2024-01-10T10:44:57;3.14;53.26
9723;DHT22;4900;49.306;8.500;2024-01-10T10:47:33;3.22;52.70
9723;DHT22;4900;49.306;8.500;2024-01-10T10:50:03;3.22;52.20
9723;DHT22;4900;49.306;8.500;2024-01-10T10:52:29;3.29;51.88
9723;DHT22;4900;49.306;8.500;2024-01-10T10:54:56;3.39;52.20
9723;DHT22;4900;49.306;8.500;2024-01-10T10:57:22;3.42;52.51
9723;DHT22;4900;49.306;8.500;2024-01-10T10:59:50;3.35;52.25
9723;DHT22;4900;49.306;8.500;2024-01-10T11:02:21;3.31;52.20
9723;DHT22;4900;49.306;8.500;2024-01-10T11:04:49;3.22;52.49
9723;DHT22;4900;49.306;8.500;2024-01-10T11:07:14;3.21;52.51
9723;DHT22;4900;49.306;8.500;2024-01-10T11:09:42;3.12;53.04
9723;DHT22;4900;49.306;8.500;2024-01-10T11:21:17;3.09;52.34
9723;DHT22;4900;49.306;8.500;2024-01-10T11:23:46;3.11;53.22
9723;DHT22;4900;49.306;8.500;2024-01-10T11:26:15;3.04;53.12
9723;DHT22;4900;49.306;8.500;2024-01-10T11:28:41;3.03;53.28
9723;DHT22;4900;49.306;8.500;2024-01-10T11:31:07;3.04;53.73
9723;DHT22;4900;49.306;8.500;2024-01-10T11:33:35;3.07;53.07
9723;DHT22;4900;49.306;8.500;2024-01-10T11:36:08;3.14;53.05
9723;DHT22;4900;49.306;8.500;2024-01-10T11:41:13;3.24;52.86
9723;DHT22;4900;49.306;8.500;2024-01-10T11:43:40;3.28;52.43
9723;DHT22;4900;49.306;8.500;2024-01-10T11:46:06;3.32;52.02
9723;DHT22;4900;49.306;8.500;2024-01-10T11:48:32;3.43;52.23
9723;DHT22;4900;49.306;8.500;2024-01-10T11:50:58;3.58;52.31
9723;DHT22;4900;49.306;8.500;2024-01-10T11:53:44;3.60;51.76
9723;DHT22;4900;49.306;8.500;2024-01-10T11:56:13;3.74;51.73
9723;DHT22;4900;49.306;8.500;2024-01-10T11:59:06;3.87;51.76
9723;DHT22;4900;49.306;8.500;2024-01-10T12:01:36;3.90;51.36
9723;DHT22;4900;49.306;8.500;2024-01-10T12:04:02;4.07;51.84
9723;DHT22;4900;49.306;8.500;2024-01-10T12:06:29;4.15;51.55
9723;DHT22;4900;49.306;8.500;2024-01-10T12:08:55;4.24;51.38
9723;DHT22;4900;49.306;8.500;2024-01-10T12:11:21;4.24;50.50
9723;DHT22;4900;49.306;8.500;2024-01-10T12:13:47;4.35;50.89
9723;DHT22;4900;49.306;8.500;2024-01-10T12:16:13;4.35;50.74
9723;DHT22;4900;49.306;8.500;2024-01-10T12:18:39;4.42;50.16
9723;DHT22;4900;49.306;8.500;2024-01-10T12:21:05;4.45;50.44
9723;DHT22;4900;49.306;8.500;2024-01-10T12:23:30;4.46;50.19
9723;DHT22;4900;49.306;8.500;2024-01-10T12:26:08;4.46;50.36
9723;DHT22;4900;49.306;8.500;2024-01-10T12:28:38;4.45;50.24
9723;DHT22;4900;49.306;8.500;2024-01-10T12:31:04;4.49;49.95
9723;DHT22;4900;49.306;8.500;2024-01-10T12:33:33;4.53;49.92
9723;DHT22;4900;49.306;8.500;2024-01-10T12:36:10;4.57;49.36
9723;DHT22;4900;49.306;8.500;2024-01-10T12:38:38;4.61;50.08
9723;DHT22;4900;49.306;8.500;2024-01-10T12:41:04;4.59;49.40
9723;DHT22;4900;49.306;8.500;2024-01-10T12:43:30;4.57;50.23
9723;DHT22;4900;49.306;8.500;2024-01-10T12:46:06;4.63;49.59
9723;DHT22;4900;49.306;8.500;2024-01-10T12:48:32;4.64;49.71
9723;DHT22;4900;49.306;8.500;2024-01-10T12:51:04;4.50;48.94
9723;DHT22;4900;49.306;8.500;2024-01-10T12:53:43;4.46;49.50
9723;DHT22;4900;49.306;8.500;2024-01-10T12:56:10;4.49;49.66
9723;DHT22;4900;49.306;8.500;2024-01-10T12:58:40;4.46;50.05
9723;DHT22;4900;49.306;8.500;2024-01-10T13:01:10;4.45;50.39
9723;DHT22;4900;49.306;8.500;2024-01-10T13:03:37;4.37;50.87
9723;DHT22;4900;49.306;8.500;2024-01-10T13:06:03;4.33;50.30
9723;DHT22;4900;49.306;8.500;2024-01-10T13:08:28;4.36;50.66
9723;DHT22;4900;49.306;8.500;2024-01-10T13:10:54;4.37;50.49
9723;DHT22;4900;49.306;8.500;2024-01-10T13:13:19;4.32;50.88
9723;DHT22;4900;49.306;8.500;2024-01-10T13:15:47;4.28;50.94
9723;DHT22;4900;49.306;8.500;2024-01-10T13:18:13;4.14;50.40
9723;DHT22;4900;49.306;8.500;2024-01-10T13:20:40;4.14;50.76
9723;DHT22;4900;49.306;8.500;2024-01-10T13:23:05;4.18;50.96
9723;DHT22;4900;49.306;8.500;2024-01-10T13:25:31;4.19;50.94
9723;DHT22;4900;49.306;8.500;2024-01-10T13:27:57;4.25;51.13
9723;DHT22;4900;49.306;8.500;2024-01-10T13:30:22;4.29;51.01
9723;DHT22;4900;49.306;8.500;2024-01-10T13:32:48;4.40;51.40
9723;DHT22;4900;49.306;8.500;2024-01-10T13:35:14;4.48;51.58
9723;DHT22;4900;49.306;8.500;2024-01-10T13:37:41;4.52;51.37
9723;DHT22;4900;49.306;8.500;2024-01-10T13:40:08;4.66;52.27
9723;DHT22;4900;49.306;8.500;2024-01-10T13:42:35;4.83;52.79
9723;DHT22;4900;49.306;8.500;2024-01-10T13:45:07;4.87;52.55
9723;DHT22;4900;49.306;8.500;2024-01-10T13:47:33;4.98;53.14
9723;DHT22;4900;49.306;8.500;2024-01-10T13:49:59;5.02;52.95
9723;DHT22;4900;49.306;8.500;2024-01-10T13:52:25;5.08;52.83
9723;DHT22;4900;49.306;8.500;2024-01-10T13:54:50;5.22;53.53
9723;DHT22;4900;49.306;8.500;2024-01-10T13:57:17;5.29;53.52
9723;DHT22;4900;49.306;8.500;2024-01-10T13:59:42;5.25;52.40
9723;DHT22;4900;49.306;8.500;2024-01-10T14:02:07;5.23;51.72
9723;DHT22;4900;49.306;8.500;2024-01-10T14:04:33;5.15;51.49
9723;DHT22;4900;49.306;8.500;2024-01-10T14:06:59;5.11;51.07
9723;DHT22;4900;49.306;8.500;2024-01-10T14:09:25;5.02;51.30
9723;DHT22;4900;49.306;8.500;2024-01-10T14:11:50;4.84;50.54
9723;DHT22;4900;49.306;8.500;2024-01-10T14:14:16;4.73;50.65
9723;DHT22;4900;49.306;8.500;2024-01-10T14:16:41;4.52;50.89
9723;DHT22;4900;49.306;8.500;2024-01-10T14:19:07;4.37;51.06
9723;DHT22;4900;49.306;8.500;2024-01-10T14:21:32;4.19;51.22
9723;DHT22;4900;49.306;8.500;2024-01-10T14:23:58;4.01;51.63
9723;DHT22;4900;49.306;8.500;2024-01-10T14:26:23;3.90;51.76
9723;DHT22;4900;49.306;8.500;2024-01-10T14:28:51;3.81;51.93
9723;DHT22;4900;49.306;8.500;2024-01-10T14:31:18;3.69;52.16
9723;DHT22;4900;49.306;8.500;2024-01-10T14:33:44;3.53;52.53
9723;DHT22;4900;49.306;8.500;2024-01-10T14:36:10;3.41;52.79
9723;DHT22;4900;49.306;8.500;2024-01-10T14:38:35;3.29;53.28
9723;DHT22;4900;49.306;8.500;2024-01-10T14:41:01;3.21;53.24
9723;DHT22;4900;49.306;8.500;2024-01-10T14:43:26;3.09;53.17
9723;DHT22;4900;49.306;8.500;2024-01-10T14:45:52;3.00;53.68
9723;DHT22;4900;49.306;8.500;2024-01-10T14:48:17;2.93;53.95
9723;DHT22;4900;49.306;8.500;2024-01-10T14:50:42;2.87;54.04
9723;DHT22;4900;49.306;8.500;2024-01-10T14:53:08;2.76;54.64
9723;DHT22;4900;49.306;8.500;2024-01-10T14:55:33;2.66;54.63
9723;DHT22;4900;49.306;8.500;2024-01-10T14:57:59;2.59;54.85
9723;DHT22;4900;49.306;8.500;2024-01-10T15:00:24;2.48;55.05
9723;DHT22;4900;49.306;8.500;2024-01-10T15:02:50;2.41;55.32
9723;DHT22;4900;49.306;8.500;2024-01-10T15:05:16;2.34;55.61
9723;DHT22;4900;49.306;8.500;2024-01-10T15:07:43;2.27;55.62
9723;DHT22;4900;49.306;8.500;2024-01-10T15:10:08;2.17;55.78
9723;DHT22;4900;49.306;8.500;2024-01-10T15:12:34;2.07;55.95
9723;DHT22;4900;49.306;8.500;2024-01-10T15:14:59;1.98;56.22
9723;DHT22;4900;49.306;8.500;2024-01-10T15:17:28;1.90;56.55
9723;DHT22;4900;49.306;8.500;2024-01-10T15:19:53;1.82;56.70
9723;DHT22;4900;49.306;8.500;2024-01-10T15:22:19;1.75;56.63
9723;DHT22;4900;49.306;8.500;2024-01-10T15:24:44;1.65;56.73
9723;DHT22;4900;49.306;8.500;2024-01-10T15:27:10;1.55;57.14
9723;DHT22;4900;49.306;8.500;2024-01-10T15:29:39;1.50;57.38
9723;DHT22;4900;49.306;8.500;2024-01-10T15:32:06;1.40;57.53
9723;DHT22;4900;49.306;8.500;2024-01-10T15:34:31;1.28;57.63
9723;DHT22;4900;49.306;8.500;2024-01-10T15:36:57;1.19;57.97
9723;DHT22;4900;49.306;8.500;2024-01-10T15:39:24;1.11;58.20
9723;DHT22;4900;49.306;8.500;2024-01-10T15:41:50;0.99;58.32
9723;DHT22;4900;49.306;8.500;2024-01-10T15:44:16;0.90;58.55
9723;DHT22;4900;49.306;8.500;2024-01-10T15:46:42;0.80;58.77
9723;DHT22;4900;49.306;8.500;2024-01-10T15:49:08;0.70;59.04
9723;DHT22;4900;49.306;8.500;2024-01-10T15:51:33;0.59;59.32
9723;DHT22;4900;49.306;8.500;2024-01-10T15:53:59;0.51;59.56
9723;DHT22;4900;49.306;8.500;2024-01-10T15:56:25;0.44;59.73
9723;DHT22;4900;49.306;8.500;2024-01-10T15:58:51;0.34;59.96
9723;DHT22;4900;49.306;8.500;2024-01-10T16:01:18;0.24;60.00
9723;DHT22;4900;49.306;8.500;2024-01-10T16:03:43;0.14;60.21
9723;DHT22;4900;49.306;8.500;2024-01-10T16:06:09;0.06;60.48
9723;DHT22;4900;49.306;8.500;2024-01-10T16:08:35;-0.03;60.65
9723;DHT22;4900;49.306;8.500;2024-01-10T16:11:01;-0.12;60.82
9723;DHT22;4900;49.306;8.500;2024-01-10T16:13:27;-0.19;60.92
9723;DHT22;4900;49.306;8.500;2024-01-10T16:15:53;-0.29;61.02